x

Drumalbin (03155) Weather Station

4:00pm - Tue 3rd Mar 2015 All times are GMT.

  • Wind
    18mph, 31mph gusts
  • 空気 Temp 38°f
  • Sea Pressure 1005mb
  • Drumalbin
  • Drumalbin

More Historic Weather Station data

Upgrade to MSW Pro to gain access to the past 30 days of data for over 8000 Wavebouys and Weather Stations around the globe.

Join Pro

Comparision Forecast

View Surf forecast
   
Tue 03/03 4:00pm 18 31 mph 1005mb 38f
3:00pm 18 34 mph 1005mb 36f
2:00pm 25 37 mph 1005mb 36f
1:00pm 22 38 mph 1005mb 35f
12:00pm 22 32 mph 1005mb 35f
11:00am 19 31 mph 1005mb 34f
10:00am 18
mph
1005mb 34f
9:00am 15
mph
1004mb 33f
8:00am 15
mph
1004mb 32f
7:00am 15
mph
1004mb 32f
6:00am 10
mph
1003mb 32f
5:00am 17 30 mph 1003mb 31f
4:00am 19 33 mph 1003mb 32f
3:00am 18 32 mph 1003mb 31f
2:00am 19 30 mph 1003mb 32f
1:00am 19 30 mph 1003mb 32f
12:00am 15 31 mph 1003mb 32f
Mon 03/02 11:00pm 16
mph
1003mb 32f
10:00pm 24 36 mph 1003mb 33f
9:00pm 21 38 mph 1002mb 33f
8:00pm 23 36 mph 1001mb 33f
7:00pm 22 33 mph 1001mb 32f
6:00pm 22 36 mph 1001mb 33f
5:00pm 23 38 mph 1001mb 33f
4:00pm 10
mph
1001mb 32f
3:00pm 16 29 mph 1001mb 32f
2:00pm 24 36 mph 1000mb 32f
1:00pm 22 36 mph 998mb 36f
12:00pm 23 44 mph 997mb 34f
11:00am 19 30 mph 996mb 33f
10:00am 17 29 mph 995mb 33f
9:00am 21 31 mph 993mb 32f
8:00am 11
mph
992mb 32f
7:00am 13
mph
992mb 33f
6:00am 13
mph
992mb 33f
5:00am 17
mph
992mb 32f
4:00am 15
mph
992mb 33f
3:00am 14 29 mph 992mb 33f
2:00am 15 30 mph 992mb 33f
1:00am 23 38 mph 991mb 32f
12:00am 24 33 mph 991mb 33f
Sun 03/01 11:00pm 19 38 mph 990mb 34f
10:00pm 17 32 mph 990mb 34f
9:00pm 22 39 mph 989mb 34f
8:00pm 28 39 mph 989mb 33f
7:00pm 21 31 mph 988mb 33f
6:00pm 21 29 mph 987mb 35f
5:00pm 17 44 mph 987mb 35f
4:00pm 18 36 mph 987mb 36f
3:00pm 25 43 mph 987mb 33f
2:00pm 26 43 mph 987mb 39f
1:00pm 25 41 mph 987mb 40f
12:00pm 29 39 mph 988mb 38f
11:00am 29 43 mph 987mb 36f
10:00am 31 43 mph 987mb 37f
9:00am 30 40 mph 986mb 38f
8:00am 22 34 mph 986mb 36f
7:00am 25 38 mph 985mb 37f
6:00am 29 38 mph 984mb 38f
5:00am 26 38 mph 983mb 38f
4:00am 29 41 mph 983mb 38f
3:00am 28 51 mph 982mb 39f
2:00am 33 48 mph 981mb 40f
1:00am 36 56 mph 980mb 40f
12:00am 41 68 mph 978mb 42f
Sat 02/28 11:00pm 44 64 mph 976mb 42f
10:00pm 34 61 mph 976mb 44f
9:00pm 29 41 mph 977mb 47f
8:00pm 33 54 mph 979mb 45f
7:00pm 39 52 mph 980mb 43f
6:00pm 34 52 mph 983mb 42f
5:00pm 30 40 mph 986mb 42f
4:00pm 24 36 mph 989mb 41f
3:00pm 25 36 mph 991mb 43f
2:00pm 24 39 mph 992mb 45f
1:00pm 23 30 mph 995mb 44f
12:00pm 22 32 mph 996mb 44f
11:00am 17
mph
997mb 43f
10:00am 13
mph
998mb 43f
9:00am 10
mph
999mb 42f
8:00am 14
mph
1000mb 42f
7:00am 15
mph
1000mb 43f
6:00am 17 30 mph 1001mb 43f
5:00am 24 32 mph 1001mb 43f
4:00am 23 34 mph 1000mb 43f
3:00am 26 36 mph 1001mb 43f
2:00am 24 36 mph 1001mb 42f
1:00am 28 43 mph 1002mb 42f
12:00am 31 48 mph 1003mb 41f
Fri 02/27 11:00pm 31 40 mph 1004mb 40f
10:00pm 29 39 mph 1005mb 40f
9:00pm 24 39 mph 1006mb 40f
8:00pm 29 37 mph 1007mb 39f
7:00pm 25 34 mph 1008mb 39f
6:00pm 18 29 mph 1009mb 38f